Time;durP1;ratioP1;P1;durP2;ratioP2;P2;SDS_P1;SDS_P2;PMS_P1;PMS_P2;Temp;Humidity;BMP_temperature;BMP_pressure;BME280_temperature;BME280_humidity;BME280_pressure;Samples;Min_cycle;Max_cycle;Signal;HPM_P1;HPM_P2
2022/06/08 00:00:15;;;;;;;;;22.25;21.00;;;;;-146.59;100.00;59519.28;4960797;28;51154;-42
2022/06/08 00:03:48;;;;;;;;;23.75;22.00;;;;;-146.59;100.00;59519.28;4961141;28;51496;-43
2022/06/08 00:06:36;;;;;;;;;28.75;22.25;;;;;-146.59;100.00;59519.28;4957431;28;51222;-41
2022/06/08 00:09:28;;;;;;;;;26.75;20.25;;;;;-146.59;100.00;59519.28;4961352;28;51194;-45
2022/06/08 00:12:14;;;;;;;;;25.50;19.00;;;;;-146.59;100.00;59519.28;4953040;28;51554;-45
2022/06/08 00:15:02;;;;;;;;;21.00;18.25;;;;;-146.59;100.00;59519.28;4961036;28;51155;-43
2022/06/08 00:18:02;;;;;;;;;23.25;21.00;;;;;-146.59;100.00;59519.28;4918731;28;52123;-45
2022/06/08 00:20:50;;;;;;;;;23.75;19.25;;;;;-146.59;100.00;59519.28;4960667;28;51153;-43
2022/06/08 00:23:50;;;;;;;;;18.25;15.50;;;;;-146.59;100.00;59519.28;4945844;28;51089;-43
2022/06/08 00:26:37;;;;;;;;;16.25;11.00;;;;;-146.59;100.00;59519.28;4960761;28;51113;-43
2022/06/08 00:29:23;;;;;;;;;25.00;20.00;;;;;-146.59;100.00;59519.28;4960858;28;51077;-45
2022/06/08 00:32:09;;;;;;;;;18.25;16.25;;;;;-146.59;100.00;59519.28;4960624;28;51269;-43
2022/06/08 00:35:01;;;;;;;;;19.75;19.75;;;;;-146.59;100.00;59519.28;4960878;28;51027;-46
2022/06/08 00:37:51;;;;;;;;;22.75;19.75;;;;;-146.59;100.00;59519.28;4960526;28;51378;-42
2022/06/08 00:40:56;;;;;;;;;21.25;18.50;;;;;-146.59;100.00;59519.28;4960415;28;51188;-44
2022/06/08 00:43:50;;;;;;;;;24.25;20.00;;;;;-146.59;100.00;59519.28;4960239;28;51242;-44
2022/06/08 00:46:42;;;;;;;;;22.25;19.75;;;;;-146.59;100.00;59519.28;4945964;28;51173;-42
2022/06/08 00:49:47;;;;;;;;;20.00;19.00;;;;;-146.59;100.00;59519.28;4946575;28;51478;-43
2022/06/08 00:52:58;;;;;;;;;17.00;17.00;;;;;-146.59;100.00;59519.28;4945274;28;51132;-41
2022/06/08 00:55:52;;;;;;;;;25.00;21.75;;;;;-146.59;100.00;59519.28;4960505;28;51170;-41
2022/06/08 00:58:38;;;;;;;;;25.25;22.00;;;;;-146.59;100.00;59519.28;4960103;28;51105;-41
2022/06/08 01:01:25;;;;;;;;;27.25;23.50;;;;;-146.59;100.00;59519.28;4945318;28;51120;-43
2022/06/08 01:04:17;;;;;;;;;25.25;23.25;;;;;-146.59;100.00;59519.28;4945226;28;51365;-43
2022/06/08 01:07:07;;;;;;;;;25.25;22.50;;;;;-146.59;100.00;59519.28;4941718;28;51172;-44
2022/06/08 01:09:59;;;;;;;;;24.75;21.00;;;;;-146.59;100.00;59519.28;4959969;28;51103;-43
2022/06/08 01:12:52;;;;;;;;;29.00;22.25;;;;;-146.59;100.00;59519.28;4946140;28;51185;-43
2022/06/08 01:15:44;;;;;;;;;27.00;24.25;;;;;-146.59;100.00;59519.28;4959704;28;51450;-42
2022/06/08 01:18:31;;;;;;;;;25.50;24.00;;;;;-146.59;100.00;59519.28;4959362;28;51170;-43
2022/06/08 01:21:21;;;;;;;;;22.50;22.00;;;;;-146.59;100.00;59519.28;4945078;28;51174;-45
2022/06/08 01:24:13;;;;;;;;;23.75;21.50;;;;;-146.59;100.00;59519.28;4959904;28;51070;-42
2022/06/08 01:27:35;;;;;;;;;26.75;21.00;;;;;-146.59;100.00;59519.28;4960437;28;51134;-44
2022/06/08 01:30:31;;;;;;;;;22.50;19.25;;;;;-146.59;100.00;59519.28;4945582;28;51585;-42
2022/06/08 01:34:09;;;;;;;;;21.75;19.50;;;;;-146.59;100.00;59519.28;4959978;28;51206;-44
2022/06/08 01:37:19;;;;;;;;;22.75;19.50;;;;;-146.59;100.00;59519.28;4918699;28;51152;-42
2022/06/08 01:40:26;;;;;;;;;28.00;22.75;;;;;-146.59;100.00;59519.28;4928547;28;51209;-45
2022/06/08 01:43:49;;;;;;;;;23.50;21.50;;;;;-146.59;100.00;59519.28;4956420;28;51561;-44
2022/06/08 01:47:04;;;;;;;;;25.75;20.00;;;;;-146.59;100.00;59519.28;4959285;28;51119;-41
2022/06/08 01:51:02;;;;;;;;;23.50;19.75;;;;;-146.59;100.00;59519.28;4955029;28;51420;-43
2022/06/08 01:54:08;;;;;;;;;17.25;16.00;;;;;-146.59;100.00;59519.28;4948602;28;50993;-43
2022/06/08 01:57:31;;;;;;;;;29.75;21.00;;;;;-146.59;100.00;59519.28;4945930;28;51521;-44
2022/06/08 02:00:55;;;;;;;;;21.50;20.75;;;;;-146.59;100.00;59519.28;4944942;28;51377;-40
2022/06/08 02:04:13;;;;;;;;;23.25;20.25;;;;;-146.59;100.00;59519.28;4961036;28;51137;-41
2022/06/08 02:07:23;;;;;;;;;28.75;21.75;;;;;-146.59;100.00;59519.28;4963260;28;51077;-42
2022/06/08 02:10:41;;;;;;;;;22.25;18.75;;;;;-146.59;100.00;59519.28;4948687;28;51086;-42
2022/06/08 02:13:41;;;;;;;;;25.50;21.50;;;;;-146.59;100.00;59519.28;4962921;28;51359;-42
2022/06/08 02:16:52;;;;;;;;;25.75;21.25;;;;;-146.59;100.00;59519.28;4963387;28;51148;-41
2022/06/08 02:19:48;;;;;;;;;21.25;20.50;;;;;-146.59;100.00;59519.28;4948110;28;51187;-41
2022/06/08 02:23:03;;;;;;;;;25.50;21.75;;;;;-146.59;100.00;59519.28;4963359;28;51058;-41
2022/06/08 02:26:14;;;;;;;;;25.75;20.50;;;;;-146.59;100.00;59519.28;4962491;28;51128;-43
2022/06/08 02:29:12;;;;;;;;;17.00;16.75;;;;;-146.59;100.00;59519.28;4950656;28;51582;-42
2022/06/08 02:34:27;;;;;;;;;19.00;17.75;;;;;-146.59;100.00;59519.28;4962968;28;51175;-41
2022/06/08 02:35:22;;;;;;;;;22.75;20.75;;;;;-146.59;100.00;59519.28;4951489;28;51194;-43
2022/06/08 02:38:13;;;;;;;;;27.25;23.50;;;;;-146.59;100.00;59519.28;4947872;28;51122;-43
2022/06/08 02:41:15;;;;;;;;;22.50;20.25;;;;;-146.59;100.00;59519.28;4959769;28;51126;-41
2022/06/08 02:44:28;;;;;;;;;22.25;18.75;;;;;-146.59;100.00;59519.28;4962554;28;51148;-45
2022/06/08 02:47:34;;;;;;;;;24.75;24.00;;;;;-146.59;100.00;59519.28;4962734;28;51441;-41
2022/06/08 02:50:33;;;;;;;;;22.75;20.25;;;;;-146.59;100.00;59519.28;4947686;28;51257;-41
2022/06/08 02:53:41;;;;;;;;;18.75;18.25;;;;;-146.59;100.00;59519.28;4947669;28;51127;-42
2022/06/08 02:56:49;;;;;;;;;26.25;23.75;;;;;-146.59;100.00;59519.28;4962184;28;51426;-41
2022/06/08 02:59:56;;;;;;;;;38.00;33.25;;;;;-146.59;100.00;59519.28;4962395;28;51587;-43
2022/06/08 03:03:10;;;;;;;;;47.75;38.00;;;;;-146.59;100.00;59519.28;4974576;28;51090;-41
2022/06/08 03:06:39;;;;;;;;;54.00;43.50;;;;;-146.59;100.00;59519.28;4982359;28;51205;-44
2022/06/08 03:09:39;;;;;;;;;50.25;39.25;;;;;-146.59;100.00;59519.28;4981661;28;51568;-43
2022/06/08 03:12:39;;;;;;;;;47.00;38.75;;;;;-146.59;100.00;59519.28;4969097;28;51157;-43
2022/06/08 03:15:28;;;;;;;;;47.25;37.00;;;;;-146.59;100.00;59519.28;4951642;28;51709;-43
2022/06/08 03:18:25;;;;;;;;;37.25;34.25;;;;;-146.59;100.00;59519.28;4981642;28;51117;-43
2022/06/08 03:21:28;;;;;;;;;44.25;35.75;;;;;-146.59;100.00;59519.28;4973714;28;51416;-41
2022/06/08 03:24:23;;;;;;;;;55.50;41.50;;;;;-146.59;100.00;59519.28;4981634;28;51374;-44
2022/06/08 03:27:10;;;;;;;;;60.75;47.00;;;;;-146.59;100.00;59519.28;4971846;28;51579;-43
2022/06/08 03:29:59;;;;;;;;;57.00;44.00;;;;;-146.59;100.00;59519.28;4980642;28;51495;-45
2022/06/08 03:32:45;;;;;;;;;53.25;41.50;;;;;-146.59;100.00;59519.28;4966187;28;51243;-42
2022/06/08 03:35:31;;;;;;;;;57.25;44.50;;;;;-146.59;100.00;59519.28;4981108;28;51406;-41
2022/06/08 03:38:20;;;;;;;;;51.75;39.75;;;;;-146.59;100.00;59519.28;4981294;28;51141;-43
2022/06/08 03:41:05;;;;;;;;;60.00;44.50;;;;;-146.59;100.00;59519.28;4980778;28;51515;-43
2022/06/08 03:43:53;;;;;;;;;67.50;50.75;;;;;-146.59;100.00;59519.28;4980596;28;51059;-41
2022/06/08 03:46:59;;;;;;;;;66.75;47.75;;;;;-146.59;100.00;59519.28;4981148;28;51137;-43
2022/06/08 03:49:48;;;;;;;;;57.25;44.00;;;;;-146.59;100.00;59519.28;4980651;28;51509;-41
2022/06/08 03:52:39;;;;;;;;;57.50;42.50;;;;;-146.59;100.00;59519.28;4980576;28;51696;-43
2022/06/08 03:55:27;;;;;;;;;55.50;42.50;;;;;-146.59;100.00;59519.28;4952884;28;51226;-41
2022/06/08 03:58:24;;;;;;;;;50.25;40.25;;;;;-146.59;100.00;59519.28;4981260;28;51148;-42
2022/06/08 04:01:14;;;;;;;;;45.75;36.75;;;;;-146.59;100.00;59519.28;4980248;28;51568;-44
2022/06/08 04:04:01;;;;;;;;;39.25;31.50;;;;;-146.59;100.00;59519.28;4979172;28;51244;-43
2022/06/08 04:06:53;;;;;;;;;37.50;32.00;;;;;-146.59;100.00;59519.28;4979699;28;51957;-44
2022/06/08 04:09:40;;;;;;;;;31.75;30.00;;;;;-146.59;100.00;59519.28;4979427;28;51371;-46
2022/06/08 04:12:30;;;;;;;;;38.50;31.75;;;;;-146.59;100.00;59519.28;4980108;28;51195;-44
2022/06/08 04:15:41;;;;;;;;;38.75;31.25;;;;;-146.59;100.00;59519.28;4980135;28;52155;-41
2022/06/08 04:18:27;;;;;;;;;38.00;32.00;;;;;-146.59;100.00;59519.28;4973791;28;51124;-41
2022/06/08 04:21:17;;;;;;;;;41.25;30.00;;;;;-146.59;100.00;59519.28;4979891;28;51206;-43
2022/06/08 04:24:13;;;;;;;;;38.00;30.50;;;;;-146.59;100.00;59519.28;4980428;28;51090;-44
2022/06/08 04:27:01;;;;;;;;;44.50;35.75;;;;;-146.59;100.00;59519.28;4937840;28;51166;-43
2022/06/08 04:29:53;;;;;;;;;45.25;36.50;;;;;-146.59;100.00;59519.28;4980194;28;51197;-43
2022/06/08 04:32:44;;;;;;;;;45.50;35.25;;;;;-146.59;100.00;59519.28;4967294;28;51184;-45
2022/06/08 04:35:29;;;;;;;;;42.50;35.75;;;;;-146.59;100.00;59519.28;4976278;28;51205;-41
2022/06/08 04:38:26;;;;;;;;;42.50;35.00;;;;;-146.59;100.00;59519.28;4971216;28;51177;-41
2022/06/08 04:41:16;;;;;;;;;41.00;33.00;;;;;-146.59;100.00;59519.28;4979748;28;51573;-44
2022/06/08 04:44:03;;;;;;;;;41.25;34.75;;;;;-146.59;100.00;59519.28;4979369;28;51585;-41
2022/06/08 04:46:51;;;;;;;;;38.75;33.00;;;;;-146.59;100.00;59519.28;4972001;28;51054;-42
2022/06/08 04:49:39;;;;;;;;;43.00;35.25;;;;;-146.59;100.00;59519.28;4979644;28;51143;-43
2022/06/08 04:52:29;;;;;;;;;42.75;36.25;;;;;-146.59;100.00;59519.28;4979810;28;51600;-44
2022/06/08 04:55:15;;;;;;;;;47.75;36.25;;;;;-146.59;100.00;59519.28;4977965;28;51313;-41
2022/06/08 04:58:07;;;;;;;;;45.25;36.50;;;;;-146.59;100.00;59519.28;4979915;28;51650;-42
2022/06/08 05:00:53;;;;;;;;;45.00;35.00;;;;;-146.59;100.00;59519.28;4979267;28;51124;-44
2022/06/08 05:04:03;;;;;;;;;43.50;35.25;;;;;-146.59;100.00;59519.28;4979622;28;51125;-43
2022/06/08 05:07:01;;;;;;;;;45.25;35.25;;;;;-146.59;100.00;59519.28;4976516;28;51600;-43
2022/06/08 05:10:02;;;;;;;;;45.00;34.25;;;;;-146.59;100.00;59519.28;4979180;28;51540;-43
2022/06/08 05:13:02;;;;;;;;;44.75;35.75;;;;;-146.59;100.00;59519.28;4979272;28;52121;-42
2022/06/08 05:16:18;;;;;;;;;44.50;37.25;;;;;-146.59;100.00;59519.28;4979813;28;51112;-42
2022/06/08 05:19:06;;;;;;;;;49.00;39.00;;;;;-146.59;100.00;59519.28;4978172;28;51168;-44
2022/06/08 05:21:52;;;;;;;;;44.75;38.75;;;;;-146.59;100.00;59519.28;4979569;28;51255;-43
2022/06/08 05:24:40;;;;;;;;;46.50;38.75;;;;;-146.59;100.00;59519.28;4978143;28;51633;-42
2022/06/08 05:27:26;;;;;;;;;47.75;38.75;;;;;-146.59;100.00;59519.28;4979390;28;51132;-43
2022/06/08 05:30:19;;;;;;;;;53.50;41.25;;;;;-146.59;100.00;59519.28;4979534;28;51180;-45
2022/06/08 05:33:08;;;;;;;;;55.00;42.25;;;;;-146.59;100.00;59519.28;4979178;28;51455;-43
2022/06/08 05:36:02;;;;;;;;;52.25;41.50;;;;;-146.59;100.00;59519.28;4979671;28;51648;-41
2022/06/08 05:38:54;;;;;;;;;49.25;41.25;;;;;-146.59;100.00;59519.28;4981138;28;51199;-41
2022/06/08 05:41:42;;;;;;;;;54.00;43.00;;;;;-146.59;100.00;59519.28;4983063;28;51215;-41
2022/06/08 05:44:36;;;;;;;;;52.00;41.25;;;;;-146.59;100.00;59519.28;4975796;28;51498;-42
2022/06/08 05:47:20;;;;;;;;;50.00;40.50;;;;;-146.59;100.00;59519.28;4967394;28;51221;-42
2022/06/08 05:50:10;;;;;;;;;54.00;44.25;;;;;-146.59;100.00;59519.28;4983239;28;51073;-43
2022/06/08 05:53:00;;;;;;;;;60.00;46.00;;;;;-146.59;100.00;59519.28;4968373;28;51221;-41
2022/06/08 05:55:45;;;;;;;;;54.25;42.50;;;;;-146.59;100.00;59519.28;4983060;28;51088;-42
2022/06/08 05:58:54;;;;;;;;;50.00;39.75;;;;;-146.59;100.00;59519.28;4981838;28;51488;-44
2022/06/08 06:01:42;;;;;;;;;50.25;41.75;;;;;-146.59;100.00;59519.28;4982077;28;51734;-43
2022/06/08 06:04:32;;;;;;;;;51.00;40.50;;;;;-146.59;100.00;59519.28;4980468;28;51196;-43
2022/06/08 06:07:20;;;;;;;;;54.00;41.25;;;;;-146.59;100.00;59519.28;4983424;28;51128;-42
2022/06/08 06:10:06;;;;;;;;;50.25;40.75;;;;;-146.59;100.00;59519.28;4982804;28;51148;-41
2022/06/08 06:12:54;;;;;;;;;52.25;39.50;;;;;-146.59;100.00;59519.28;4982499;28;51092;-42
2022/06/08 06:15:41;;;;;;;;;53.75;42.25;;;;;-146.59;100.00;59519.28;4982419;28;51171;-44
2022/06/08 06:18:26;;;;;;;;;46.00;37.25;;;;;-146.59;100.00;59519.28;4982276;28;51154;-42
2022/06/08 06:21:25;;;;;;;;;55.75;42.75;;;;;-146.59;100.00;59519.28;4982971;28;51187;-43
2022/06/08 06:24:11;;;;;;;;;54.50;41.25;;;;;-146.59;100.00;59519.28;4978022;28;51515;-44
2022/06/08 06:26:56;;;;;;;;;55.50;43.50;;;;;-146.59;100.00;59519.28;4979879;28;51791;-44
2022/06/08 06:29:43;;;;;;;;;58.25;46.75;;;;;-146.59;100.00;59519.28;4967000;28;51300;-41
2022/06/08 06:32:31;;;;;;;;;55.00;44.75;;;;;-146.59;100.00;59519.28;4967736;28;51159;-42
2022/06/08 06:35:28;;;;;;;;;59.25;47.00;;;;;-146.59;100.00;59519.28;4959938;28;51229;-41
2022/06/08 06:38:20;;;;;;;;;56.50;45.50;;;;;-146.59;100.00;59519.28;4982382;28;51156;-46
2022/06/08 06:41:06;;;;;;;;;59.00;44.50;;;;;-146.59;100.00;59519.28;4981363;28;51899;-41
2022/06/08 06:43:56;;;;;;;;;59.00;47.00;;;;;-146.59;100.00;59519.28;4981208;28;51101;-43
2022/06/08 06:46:54;;;;;;;;;56.50;45.00;;;;;-146.59;100.00;59519.28;4981703;28;51235;-42
2022/06/08 06:50:01;;;;;;;;;58.25;45.75;;;;;-146.59;100.00;59519.28;4975832;28;51324;-43
2022/06/08 06:52:50;;;;;;;;;59.00;46.50;;;;;-146.59;100.00;59519.28;4978235;28;51233;-43
2022/06/08 06:56:14;;;;;;;;;61.75;47.50;;;;;-146.59;100.00;59519.28;4902329;28;51354;-45
2022/06/08 06:59:06;;;;;;;;;55.50;44.00;;;;;-146.59;100.00;59519.28;4902532;28;51155;-45
2022/06/08 07:02:01;;;;;;;;;53.25;44.25;;;;;-146.59;100.00;59519.28;4902054;28;51482;-44
2022/06/08 07:04:51;;;;;;;;;57.25;45.25;;;;;-146.59;100.00;59519.28;4882959;29;51324;-42
2022/06/08 07:08:04;;;;;;;;;55.50;44.25;;;;;-146.59;100.00;59519.28;4883468;29;51335;-44
2022/06/08 07:14:20;;;;;;;;;64.25;47.75;;;;;-146.59;100.00;59519.28;4883473;29;51212;-43
2022/06/08 07:17:08;;;;;;;;;62.50;48.25;;;;;-146.59;100.00;59519.28;4869941;29;51579;-43
2022/06/08 07:19:55;;;;;;;;;63.50;50.00;;;;;-146.59;100.00;59519.28;4882923;29;51284;-43
2022/06/08 07:22:43;;;;;;;;;60.75;49.00;;;;;-146.59;100.00;59519.28;4883121;29;51262;-44
2022/06/08 07:25:30;;;;;;;;;60.75;47.25;;;;;-146.59;100.00;59519.28;4883291;29;51568;-45
2022/06/08 07:28:18;;;;;;;;;66.00;51.25;;;;;-146.59;100.00;59519.28;4875398;29;51135;-44
2022/06/08 07:33:54;;;;;;;;;63.25;48.50;;;;;-146.59;100.00;59519.28;4881806;29;51651;-44
2022/06/08 07:36:48;;;;;;;;;57.00;46.00;;;;;-146.59;100.00;59519.28;4882107;29;51058;-45
2022/06/08 07:39:35;;;;;;;;;59.25;46.00;;;;;-146.59;100.00;59519.28;4883084;29;51211;-44
2022/06/08 07:42:36;;;;;;;;;62.75;47.00;;;;;-146.59;100.00;59519.28;4882801;29;51142;-43
2022/06/08 07:45:21;;;;;;;;;57.25;43.75;;;;;-146.59;100.00;59519.28;4882530;29;51120;-44
2022/06/08 07:51:20;;;;;;;;;33.00;30.75;;;;;-146.59;100.00;59519.28;4868304;29;51140;-43
2022/06/08 07:54:05;;;;;;;;;53.50;43.00;;;;;-146.59;100.00;59519.28;4881764;29;51180;-45
2022/06/08 07:56:51;;;;;;;;;49.00;39.75;;;;;-146.59;100.00;59519.28;4892199;28;51215;-43
2022/06/08 07:59:37;;;;;;;;;52.00;42.50;;;;;-146.59;100.00;59519.28;4869595;29;51602;-42
2022/06/08 08:02:21;;;;;;;;;51.50;41.00;;;;;-146.59;100.00;59519.28;4881853;29;51101;-42
2022/06/08 08:05:09;;;;;;;;;52.25;41.75;;;;;-146.59;100.00;59519.28;4882142;29;51214;-42
2022/06/08 08:08:00;;;;;;;;;55.75;42.75;;;;;-146.59;100.00;59519.28;4882249;29;51089;-43
2022/06/08 08:10:53;;;;;;;;;44.25;37.75;;;;;-146.59;100.00;59519.28;4912647;28;51610;-52
2022/06/08 08:13:38;;;;;;;;;41.00;34.25;;;;;-146.59;100.00;59519.28;4960774;28;51109;-53
2022/06/08 08:16:23;;;;;;;;;43.50;36.25;;;;;-146.59;100.00;59519.28;4960999;28;51190;-54
2022/06/08 08:19:10;;;;;;;;;42.25;34.75;;;;;-146.59;100.00;59519.28;4960485;28;51472;-53
2022/06/08 08:21:57;;;;;;;;;42.00;33.75;;;;;-146.59;100.00;59519.28;4960625;28;51173;-51
2022/06/08 08:24:49;;;;;;;;;39.00;33.00;;;;;-146.59;100.00;59519.28;4960824;28;51146;-52
2022/06/08 08:28:01;;;;;;;;;36.00;31.50;;;;;-146.59;100.00;59519.28;4960985;28;51042;-55
2022/06/08 08:30:47;;;;;;;;;34.00;31.00;;;;;-146.59;100.00;59519.28;4958432;28;51055;-49
2022/06/08 08:33:34;;;;;;;;;40.00;30.50;;;;;-146.59;100.00;59519.28;4960575;28;51145;-50
2022/06/08 08:39:08;;;;;;;;;34.00;31.00;;;;;-146.59;100.00;59519.28;4900380;28;51268;-51
2022/06/08 08:45:08;;;;;;;;;36.00;31.25;;;;;-146.59;100.00;59519.28;4900474;28;51321;-50
2022/06/08 08:48:31;;;;;;;;;35.50;30.25;;;;;-146.59;100.00;59519.28;4884724;28;51125;-50
2022/06/08 08:51:43;;;;;;;;;44.75;36.25;;;;;-146.59;100.00;59519.28;4885013;28;51295;-52
2022/06/08 08:54:42;;;;;;;;;44.50;34.50;;;;;-146.59;100.00;59519.28;4899884;28;51200;-50
2022/06/08 08:57:36;;;;;;;;;39.00;32.25;;;;;-146.59;100.00;59519.28;4900114;28;51167;-50
2022/06/08 09:00:52;;;;;;;;;38.25;31.75;;;;;-146.59;100.00;59519.28;4886866;28;51188;-51
2022/06/08 09:03:44;;;;;;;;;41.00;33.50;;;;;-146.59;100.00;59519.28;4887698;29;51129;-53
2022/06/08 09:06:39;;;;;;;;;46.00;37.00;;;;;-146.59;100.00;59519.28;4921931;28;51196;-52
2022/06/08 09:09:37;;;;;;;;;39.00;31.75;;;;;-146.59;100.00;59519.28;4918684;28;51105;-50
2022/06/08 09:12:23;;;;;;;;;35.75;30.25;;;;;-146.59;100.00;59519.28;4917280;28;51814;-51
2022/06/08 09:15:25;;;;;;;;;39.00;32.50;;;;;-146.59;100.00;59519.28;4920756;28;51217;-52
2022/06/08 09:18:54;;;;;;;;;37.50;32.00;;;;;-146.59;100.00;59519.28;4959257;28;51578;-50
2022/06/08 09:22:06;;;;;;;;;30.50;30.00;;;;;-146.59;100.00;59519.28;4958181;28;51173;-52
2022/06/08 09:25:20;;;;;;;;;39.50;30.50;;;;;-146.59;100.00;59519.28;4959810;28;51155;-52
2022/06/08 09:28:26;;;;;;;;;35.50;30.50;;;;;-146.59;100.00;59519.28;4943370;28;51416;-52
2022/06/08 09:31:33;;;;;;;;;31.50;26.75;;;;;-146.59;100.00;59519.28;4945350;28;51358;-50
2022/06/08 09:34:32;;;;;;;;;28.00;27.00;;;;;-146.59;100.00;59519.28;4944781;28;51146;-51
2022/06/08 09:37:26;;;;;;;;;30.25;26.75;;;;;-146.59;100.00;59519.28;4961166;28;51189;-52
2022/06/08 09:40:37;;;;;;;;;30.00;29.00;;;;;-146.59;100.00;59519.28;4959988;28;51245;-52
2022/06/08 09:44:02;;;;;;;;;42.50;33.00;;;;;-146.59;100.00;59519.28;4946048;28;51220;-52
2022/06/08 09:54:51;;;;;;;;;31.75;26.25;;;;;-146.59;100.00;59519.28;4959951;28;51257;-52
2022/06/08 09:57:49;;;;;;;;;25.25;21.25;;;;;-146.59;100.00;59519.28;4959703;28;51180;-53
2022/06/08 10:01:01;;;;;;;;;22.75;20.50;;;;;-146.59;100.00;59519.28;4945587;28;51568;-51
2022/06/08 10:04:00;;;;;;;;;18.75;17.50;;;;;-146.59;100.00;59519.28;4960338;28;51131;-51
2022/06/08 10:07:13;;;;;;;;;22.75;21.75;;;;;-146.59;100.00;59519.28;4961148;28;51061;-51
2022/06/08 10:10:27;;;;;;;;;26.50;22.75;;;;;-146.59;100.00;59519.28;4960351;28;51193;-54
2022/06/08 10:13:28;;;;;;;;;29.00;22.75;;;;;-146.59;100.00;59519.28;4932906;28;51228;-50
2022/06/08 10:16:21;;;;;;;;;24.75;19.75;;;;;-146.59;100.00;59519.28;4961566;28;51293;-49
2022/06/08 10:19:29;;;;;;;;;25.50;22.25;;;;;-146.59;100.00;59519.28;4960058;28;51212;-52
2022/06/08 10:22:20;;;;;;;;;24.00;21.00;;;;;-146.59;100.00;59519.28;4941441;28;51164;-51
2022/06/08 10:25:24;;;;;;;;;25.25;21.00;;;;;-146.59;100.00;59519.28;4950544;28;51135;-50
2022/06/08 10:28:22;;;;;;;;;26.50;23.00;;;;;-146.59;100.00;59519.28;4964968;28;51230;-54
2022/06/08 10:31:46;;;;;;;;;23.25;22.25;;;;;-146.59;100.00;59519.28;4949282;28;51146;-49
2022/06/08 10:34:35;;;;;;;;;19.00;18.50;;;;;-146.59;100.00;59519.28;4962458;28;51222;-52
2022/06/08 10:37:44;;;;;;;;;21.50;19.75;;;;;-146.59;100.00;59519.28;4962573;28;51556;-50
2022/06/08 10:40:51;;;;;;;;;25.25;20.75;;;;;-146.59;100.00;59519.28;4961635;28;51147;-52
2022/06/08 10:43:59;;;;;;;;;19.50;17.50;;;;;-146.59;100.00;59519.28;4944350;28;51202;-52
2022/06/08 10:46:57;;;;;;;;;20.50;18.75;;;;;-146.59;100.00;59519.28;4964263;28;51382;-51
2022/06/08 10:50:08;;;;;;;;;21.25;19.50;;;;;-146.59;100.00;59519.28;4961941;28;51481;-52
2022/06/08 10:56:32;;;;;;;;;22.00;22.00;;;;;-146.59;100.00;59519.28;4954395;28;51292;-51
2022/06/08 10:59:32;;;;;;;;;23.50;22.00;;;;;-146.59;100.00;59519.28;4947776;28;51233;-52
2022/06/08 11:02:44;;;;;;;;;22.50;21.50;;;;;-146.59;100.00;59519.28;4963027;28;51071;-53
2022/06/08 11:05:45;;;;;;;;;22.75;21.75;;;;;-146.59;100.00;59519.28;4960258;28;51242;-53
2022/06/08 11:08:51;;;;;;;;;24.00;20.25;;;;;-146.59;100.00;59519.28;4982474;28;51100;-51
2022/06/08 11:11:49;;;;;;;;;29.75;24.00;;;;;-146.59;100.00;59519.28;4981451;28;51239;-52
2022/06/08 11:14:57;;;;;;;;;25.50;22.25;;;;;-146.59;100.00;59519.28;4981035;28;51176;-52
2022/06/08 11:17:58;;;;;;;;;22.25;17.50;;;;;-146.59;100.00;59519.28;4965979;28;51437;-53
2022/06/08 11:21:26;;;;;;;;;18.50;18.25;;;;;-146.59;100.00;59519.28;4976891;28;51175;-50
2022/06/08 11:24:32;;;;;;;;;24.75;21.50;;;;;-146.59;100.00;59519.28;4975010;28;51437;-52
2022/06/08 11:27:31;;;;;;;;;19.25;17.25;;;;;-146.59;100.00;59519.28;4979878;28;51220;-50
2022/06/08 11:30:31;;;;;;;;;20.25;20.25;;;;;-146.59;100.00;59519.28;4981415;28;51188;-52
2022/06/08 11:33:22;;;;;;;;;22.75;20.75;;;;;-146.59;100.00;59519.28;4993202;28;51576;-49
2022/06/08 11:36:31;;;;;;;;;22.50;19.00;;;;;-146.59;100.00;59519.28;4964309;28;51173;-51
2022/06/08 11:39:51;;;;;;;;;23.00;19.50;;;;;-146.59;100.00;59519.28;4980882;28;51183;-52
2022/06/08 11:43:15;;;;;;;;;20.00;15.75;;;;;-146.59;100.00;59519.28;4980474;28;51040;-53
2022/06/08 11:46:03;;;;;;;;;19.50;19.00;;;;;-146.59;100.00;59519.28;4968706;28;51156;-50
2022/06/08 11:48:51;;;;;;;;;26.00;22.25;;;;;-146.59;100.00;59519.28;4966059;28;51106;-53
2022/06/08 11:52:00;;;;;;;;;20.25;20.00;;;;;-146.59;100.00;59519.28;4981195;28;51176;-52
2022/06/08 11:55:17;;;;;;;;;11.50;10.00;;;;;-146.59;100.00;59519.28;4976975;28;51118;-53
2022/06/08 11:58:16;;;;;;;;;20.50;20.50;;;;;-146.59;100.00;59519.28;4959190;28;51146;-51
2022/06/08 12:01:15;;;;;;;;;15.00;13.50;;;;;-146.59;100.00;59519.28;4966872;28;51119;-51
2022/06/08 12:04:31;;;;;;;;;23.00;20.25;;;;;-146.59;100.00;59519.28;4999799;28;51150;-49
2022/06/08 12:07:50;;;;;;;;;26.25;18.75;;;;;-146.59;100.00;59519.28;5000123;28;51536;-52
2022/06/08 12:10:37;;;;;;;;;22.75;17.50;;;;;-146.59;100.00;59519.28;5000363;28;51073;-52
2022/06/08 12:13:28;;;;;;;;;21.25;19.75;;;;;-146.59;100.00;59519.28;5000233;28;51391;-52
2022/06/08 12:17:03;;;;;;;;;17.25;15.75;;;;;-146.59;100.00;59519.28;5000207;28;51205;-52
2022/06/08 12:19:57;;;;;;;;;20.50;19.00;;;;;-146.59;100.00;59519.28;4999734;28;51487;-53
2022/06/08 12:22:53;;;;;;;;;20.50;20.25;;;;;-146.59;100.00;59519.28;4999934;28;51149;-53
2022/06/08 12:26:01;;;;;;;;;25.25;20.00;;;;;-146.59;100.00;59519.28;5000409;28;51150;-53
2022/06/08 12:29:25;;;;;;;;;22.00;18.25;;;;;-146.59;100.00;59519.28;4999810;28;51149;-52
2022/06/08 12:32:23;;;;;;;;;20.50;17.00;;;;;-146.59;100.00;59519.28;4938746;28;51247;-50
2022/06/08 12:35:23;;;;;;;;;23.00;20.00;;;;;-146.59;100.00;59519.28;4939066;28;51210;-53
2022/06/08 12:38:37;;;;;;;;;26.50;21.00;;;;;-146.59;100.00;59519.28;4939171;28;51106;-50
2022/06/08 12:41:41;;;;;;;;;17.50;17.25;;;;;-146.59;100.00;59519.28;4938993;28;51485;-52
2022/06/08 12:44:35;;;;;;;;;27.50;21.00;;;;;-146.59;100.00;59519.28;4939154;28;51161;-52
2022/06/08 12:47:26;;;;;;;;;22.00;18.25;;;;;-146.59;100.00;59519.28;4939197;28;51186;-52
2022/06/08 12:50:23;;;;;;;;;22.75;20.25;;;;;-146.59;100.00;59519.28;4990466;28;51111;-52
2022/06/08 12:53:12;;;;;;;;;24.00;24.00;;;;;-146.59;100.00;59519.28;4989708;28;51211;-53
2022/06/08 12:56:00;;;;;;;;;22.25;19.75;;;;;-146.59;100.00;59519.28;4999253;28;51067;-52
2022/06/08 12:58:50;;;;;;;;;27.50;23.50;;;;;-146.59;100.00;59519.28;4999554;28;51269;-53
2022/06/08 13:01:36;;;;;;;;;28.75;23.25;;;;;-146.59;100.00;59519.28;4999227;28;51146;-52
2022/06/08 13:04:23;;;;;;;;;25.00;20.75;;;;;-146.59;100.00;59519.28;4993768;28;51040;-50
2022/06/08 13:07:35;;;;;;;;;24.75;19.75;;;;;-146.59;100.00;59519.28;4981185;28;51613;-51
2022/06/08 13:10:24;;;;;;;;;27.00;22.75;;;;;-146.59;100.00;59519.28;4987256;28;51306;-51
2022/06/08 13:13:24;;;;;;;;;26.25;21.25;;;;;-146.59;100.00;59519.28;4999614;28;51838;-52
2022/06/08 13:16:22;;;;;;;;;18.00;15.75;;;;;-146.59;100.00;59519.28;4999383;28;51226;-53
2022/06/08 13:19:16;;;;;;;;;25.25;19.75;;;;;-146.59;100.00;59519.28;4999661;28;51140;-51
2022/06/08 13:22:04;;;;;;;;;20.50;18.00;;;;;-146.59;100.00;59519.28;4999353;28;51181;-52
2022/06/08 13:25:14;;;;;;;;;20.75;17.00;;;;;-146.59;100.00;59519.28;4999252;28;51216;-53
2022/06/08 13:28:06;;;;;;;;;26.25;22.50;;;;;-146.59;100.00;59519.28;4998987;28;51305;-51
2022/06/08 13:31:24;;;;;;;;;23.75;23.25;;;;;-146.59;100.00;59519.28;4999861;28;51119;-52
2022/06/08 13:34:17;;;;;;;;;27.00;23.00;;;;;-146.59;100.00;59519.28;4998764;28;51449;-54
2022/06/08 13:37:41;;;;;;;;;21.00;21.00;;;;;-146.59;100.00;59519.28;4999663;28;51241;-52